Casnovia, Michigan
Current Conditions -  °F | °C
As of 3:13 PM on Saturday 20 Dec 2014 (Local Time) from KFFX Reporting Station
Haze Haze  
Wind Chill: -2°   Ceiling: 2400
Heat Index: -2°   Visibility: 5mi
Dew Point: -4°   Wind: 0mph
Humidity: 87%   Direction: NA
Pressure: 30.24"   Gusts: NA
Location:  43.23°N, 85.79°W
Report Text: KFFX 202013Z AUTO 00000KT 5SM BR OVC024 M02/M04 A3024 RMK AO2 T10181037
Loading
Personal Weather Stations






























Interactive Weather Map New forecast layout! Learn more

10-Day Weather Forecast

Advertisements
Track Severe Weather on mobile